الصفحة الرئيسية
METAR-TAF:

METAR-TAF

مطار :

مطار انديرا غاندي الدولي

نيودلهي, الهند

دائرة عرض: 28-34N, خط طول: 077-07E, ارتفاع: 220 متر

مراقبة الطقس الحالي

تاريخ ووقت الإصدار 36 دقيقة قبل الساعة 03:30UTC
ريح 11 عقدة من الغرب/الجنوب الغربي
درجة الحرارة 37°درجة مئوية
الرطوبة 25%
ضغط 1000 hPa
الرؤية: 3500 متر
غيوم قليلة على ارتفاع 4000 قدم
غيوم متفرقة على ارتفاع 10000 قدم
غبار

METAR: VIDP 270330Z 25011KT 3500 DU FEW040 SCT100 37/14 Q1000 NOSIG

زمن: 09:36 (04:06 UTC)

توقعات

تاريخ ووقت الإصدار 2ساعات و 6 دقيقة قبل الساعة 02:00UTC
التوقعات صالحة من27 الساعة 03 UTC إلى 27 الساعة 12 UTC
ريح 6 عقدة من الجنوب الغربي
الرؤية: 4000 متر
غيوم متفرقة على ارتفاع 10000 قدم
العجاج
أصبح
من 27 الساعة 06 UTC إلى 27 الساعة 08 UTC
ريح 8 عقدة من الغرب/الشمال الغربي تتزايد حتى 18 عقدة
الرؤية: 5000 متر
غيوم قليلة على ارتفاع 4000 قدم
غيوم مفككة على ارتفاع 10000 قدم
غبار

TAF: VIDP 270200Z 2703/2712 23006KT 4000 HZ SCT100 BECMG 2706/2708 29008G18KT 5000 DU FEW040 BKN100

أرصاد الطقس والتوقعات من أكثر من 4000 مطار (تقارير الطقس للمطار METAR والتنبؤ بالطقس بالمطارTAF).

المحطات المتاحة هي النقط الصفراء والحمراء على الخريطة.

حرك المؤشر فوق النقطة لمعرفة اسم المحطة.

ثم انقر لمعرفة أرصاد وتوقعات الطقس.

لتغيير الخارطة: اضغط على الأزرار الخضراء مع رمز الصليب الأسود للتكبير. على الزر الأخضر مع شرطة للتصغير، أو على الأسهم الخضراء للخرائط المجاورة.


METAR-TAF: